sensor_id;sensor_type;location;lat;lon;timestamp;temperature;humidity
21815;DHT22;11069;48.988;8.450;2022-08-30T00:00:42;16.80;99.90
21815;DHT22;11069;48.988;8.450;2022-08-30T00:03:26;16.80;99.90
21815;DHT22;11069;48.988;8.450;2022-08-30T00:05:53;16.80;99.90
21815;DHT22;11069;48.988;8.450;2022-08-30T00:08:19;16.70;99.90
21815;DHT22;11069;48.988;8.450;2022-08-30T00:10:45;16.70;99.90
21815;DHT22;11069;48.988;8.450;2022-08-30T00:13:11;16.80;99.90
21815;DHT22;11069;48.988;8.450;2022-08-30T00:15:39;16.90;99.90
21815;DHT22;11069;48.988;8.450;2022-08-30T00:18:05;16.90;99.90
21815;DHT22;11069;48.988;8.450;2022-08-30T00:20:34;16.90;99.90
21815;DHT22;11069;48.988;8.450;2022-08-30T00:23:01;16.80;99.90
21815;DHT22;11069;48.988;8.450;2022-08-30T00:25:27;16.90;99.90
21815;DHT22;11069;48.988;8.450;2022-08-30T00:27:54;17.10;99.90
21815;DHT22;11069;48.988;8.450;2022-08-30T00:30:20;17.10;99.90
21815;DHT22;11069;48.988;8.450;2022-08-30T00:32:46;17.20;99.90
21815;DHT22;11069;48.988;8.450;2022-08-30T00:35:15;17.20;99.90
21815;DHT22;11069;48.988;8.450;2022-08-30T00:37:41;17.30;99.90
21815;DHT22;11069;48.988;8.450;2022-08-30T00:40:08;17.40;99.90
21815;DHT22;11069;48.988;8.450;2022-08-30T00:42:34;17.50;99.90
21815;DHT22;11069;48.988;8.450;2022-08-30T00:45:00;17.60;99.90
21815;DHT22;11069;48.988;8.450;2022-08-30T00:47:25;17.60;99.90
21815;DHT22;11069;48.988;8.450;2022-08-30T00:49:53;17.70;99.90
21815;DHT22;11069;48.988;8.450;2022-08-30T00:52:21;17.80;99.90
21815;DHT22;11069;48.988;8.450;2022-08-30T00:54:49;17.70;99.90
21815;DHT22;11069;48.988;8.450;2022-08-30T00:57:16;17.70;99.90
21815;DHT22;11069;48.988;8.450;2022-08-30T00:59:44;17.70;99.90
21815;DHT22;11069;48.988;8.450;2022-08-30T01:02:11;17.60;99.90
21815;DHT22;11069;48.988;8.450;2022-08-30T01:04:39;17.60;99.90
21815;DHT22;11069;48.988;8.450;2022-08-30T01:07:07;17.60;99.90
21815;DHT22;11069;48.988;8.450;2022-08-30T01:09:34;17.60;99.90
21815;DHT22;11069;48.988;8.450;2022-08-30T01:12:00;17.60;99.90
21815;DHT22;11069;48.988;8.450;2022-08-30T01:14:26;17.50;99.90
21815;DHT22;11069;48.988;8.450;2022-08-30T01:16:55;17.50;99.90
21815;DHT22;11069;48.988;8.450;2022-08-30T01:22:07;17.60;99.90
21815;DHT22;11069;48.988;8.450;2022-08-30T01:24:34;17.50;99.90
21815;DHT22;11069;48.988;8.450;2022-08-30T01:27:00;17.60;99.90
21815;DHT22;11069;48.988;8.450;2022-08-30T01:29:29;17.60;99.90
21815;DHT22;11069;48.988;8.450;2022-08-30T01:31:55;17.60;99.90
21815;DHT22;11069;48.988;8.450;2022-08-30T01:34:21;17.50;99.90
21815;DHT22;11069;48.988;8.450;2022-08-30T01:36:47;17.40;99.90
21815;DHT22;11069;48.988;8.450;2022-08-30T01:39:16;17.40;99.90
21815;DHT22;11069;48.988;8.450;2022-08-30T01:41:42;17.20;99.90
21815;DHT22;11069;48.988;8.450;2022-08-30T01:44:12;17.20;99.90
21815;DHT22;11069;48.988;8.450;2022-08-30T01:46:44;17.10;99.90
21815;DHT22;11069;48.988;8.450;2022-08-30T01:49:13;17.10;99.90
21815;DHT22;11069;48.988;8.450;2022-08-30T01:51:40;17.10;99.90
21815;DHT22;11069;48.988;8.450;2022-08-30T01:54:06;17.10;99.90
21815;DHT22;11069;48.988;8.450;2022-08-30T01:56:32;17.10;99.90
21815;DHT22;11069;48.988;8.450;2022-08-30T01:58:58;17.10;99.90
21815;DHT22;11069;48.988;8.450;2022-08-30T02:01:26;17.00;99.90
21815;DHT22;11069;48.988;8.450;2022-08-30T02:03:54;17.00;99.90
21815;DHT22;11069;48.988;8.450;2022-08-30T02:06:21;17.00;99.90
21815;DHT22;11069;48.988;8.450;2022-08-30T02:08:48;16.90;99.90
21815;DHT22;11069;48.988;8.450;2022-08-30T02:11:15;16.80;99.90
21815;DHT22;11069;48.988;8.450;2022-08-30T02:13:43;16.90;99.90
21815;DHT22;11069;48.988;8.450;2022-08-30T02:16:11;17.00;99.90
21815;DHT22;11069;48.988;8.450;2022-08-30T02:18:38;17.00;99.90
21815;DHT22;11069;48.988;8.450;2022-08-30T02:21:05;17.00;99.90
21815;DHT22;11069;48.988;8.450;2022-08-30T02:23:31;16.90;99.90
21815;DHT22;11069;48.988;8.450;2022-08-30T02:25:57;16.90;99.90
21815;DHT22;11069;48.988;8.450;2022-08-30T02:28:23;16.80;99.90
21815;DHT22;11069;48.988;8.450;2022-08-30T02:30:50;16.80;99.90
21815;DHT22;11069;48.988;8.450;2022-08-30T02:33:16;16.80;99.90
21815;DHT22;11069;48.988;8.450;2022-08-30T02:35:42;16.80;99.90
21815;DHT22;11069;48.988;8.450;2022-08-30T02:38:07;16.70;99.90
21815;DHT22;11069;48.988;8.450;2022-08-30T02:40:34;16.60;99.90
21815;DHT22;11069;48.988;8.450;2022-08-30T02:42:59;16.60;99.90
21815;DHT22;11069;48.988;8.450;2022-08-30T02:45:25;16.50;99.90
21815;DHT22;11069;48.988;8.450;2022-08-30T02:47:51;16.50;99.90
21815;DHT22;11069;48.988;8.450;2022-08-30T02:50:17;16.40;99.90
21815;DHT22;11069;48.988;8.450;2022-08-30T02:52:43;16.40;99.90
21815;DHT22;11069;48.988;8.450;2022-08-30T02:55:09;16.40;99.90
21815;DHT22;11069;48.988;8.450;2022-08-30T02:57:35;16.40;99.90
21815;DHT22;11069;48.988;8.450;2022-08-30T03:00:05;16.40;99.90
21815;DHT22;11069;48.988;8.450;2022-08-30T03:02:31;16.50;99.90
21815;DHT22;11069;48.988;8.450;2022-08-30T03:04:57;16.50;99.90
21815;DHT22;11069;48.988;8.450;2022-08-30T03:07:23;16.60;99.90
21815;DHT22;11069;48.988;8.450;2022-08-30T03:09:48;16.50;99.90
21815;DHT22;11069;48.988;8.450;2022-08-30T03:12:14;16.60;99.90
21815;DHT22;11069;48.988;8.450;2022-08-30T03:14:40;16.60;99.90
21815;DHT22;11069;48.988;8.450;2022-08-30T03:17:07;16.60;99.90
21815;DHT22;11069;48.988;8.450;2022-08-30T03:19:34;16.70;99.90
21815;DHT22;11069;48.988;8.450;2022-08-30T03:22:04;16.60;99.90
21815;DHT22;11069;48.988;8.450;2022-08-30T03:24:31;16.60;99.90
21815;DHT22;11069;48.988;8.450;2022-08-30T03:26:57;16.70;99.90
21815;DHT22;11069;48.988;8.450;2022-08-30T03:29:22;16.60;99.90
21815;DHT22;11069;48.988;8.450;2022-08-30T03:31:48;16.60;99.90
21815;DHT22;11069;48.988;8.450;2022-08-30T03:34:14;16.60;99.90
21815;DHT22;11069;48.988;8.450;2022-08-30T03:36:40;16.60;99.90
21815;DHT22;11069;48.988;8.450;2022-08-30T03:39:07;16.50;99.90
21815;DHT22;11069;48.988;8.450;2022-08-30T03:41:33;16.50;99.90
21815;DHT22;11069;48.988;8.450;2022-08-30T03:44:00;16.50;99.90
21815;DHT22;11069;48.988;8.450;2022-08-30T03:46:26;16.40;99.90
21815;DHT22;11069;48.988;8.450;2022-08-30T03:48:52;16.30;99.90
21815;DHT22;11069;48.988;8.450;2022-08-30T03:51:21;16.30;99.90
21815;DHT22;11069;48.988;8.450;2022-08-30T03:53:47;16.30;99.90
21815;DHT22;11069;48.988;8.450;2022-08-30T03:56:12;16.30;99.90
21815;DHT22;11069;48.988;8.450;2022-08-30T03:58:38;16.30;99.90
21815;DHT22;11069;48.988;8.450;2022-08-30T04:01:05;16.40;99.90
21815;DHT22;11069;48.988;8.450;2022-08-30T04:03:31;16.40;99.90
21815;DHT22;11069;48.988;8.450;2022-08-30T04:05:57;16.30;99.90
21815;DHT22;11069;48.988;8.450;2022-08-30T04:08:23;16.40;99.90
21815;DHT22;11069;48.988;8.450;2022-08-30T04:10:51;16.30;99.90
21815;DHT22;11069;48.988;8.450;2022-08-30T04:13:18;16.30;99.90
21815;DHT22;11069;48.988;8.450;2022-08-30T04:15:45;16.30;99.90
21815;DHT22;11069;48.988;8.450;2022-08-30T04:18:10;16.20;99.90
21815;DHT22;11069;48.988;8.450;2022-08-30T04:20:36;16.20;99.90
21815;DHT22;11069;48.988;8.450;2022-08-30T04:23:04;16.20;99.90
21815;DHT22;11069;48.988;8.450;2022-08-30T04:25:35;16.30;99.90
21815;DHT22;11069;48.988;8.450;2022-08-30T04:28:01;16.30;99.90
21815;DHT22;11069;48.988;8.450;2022-08-30T04:30:27;16.30;99.90
21815;DHT22;11069;48.988;8.450;2022-08-30T04:32:53;16.30;99.90
21815;DHT22;11069;48.988;8.450;2022-08-30T04:35:18;16.30;99.90
21815;DHT22;11069;48.988;8.450;2022-08-30T04:37:44;16.30;99.90
21815;DHT22;11069;48.988;8.450;2022-08-30T04:40:10;16.30;99.90
21815;DHT22;11069;48.988;8.450;2022-08-30T04:42:36;16.30;99.90
21815;DHT22;11069;48.988;8.450;2022-08-30T04:45:05;16.40;99.90
21815;DHT22;11069;48.988;8.450;2022-08-30T04:47:31;16.40;99.90
21815;DHT22;11069;48.988;8.450;2022-08-30T04:49:57;16.30;99.90
21815;DHT22;11069;48.988;8.450;2022-08-30T04:52:23;16.30;99.90
21815;DHT22;11069;48.988;8.450;2022-08-30T04:54:56;16.40;99.90
21815;DHT22;11069;48.988;8.450;2022-08-30T04:57:22;16.40;99.90
21815;DHT22;11069;48.988;8.450;2022-08-30T04:59:48;16.50;99.90
21815;DHT22;11069;48.988;8.450;2022-08-30T05:02:13;16.50;99.90
21815;DHT22;11069;48.988;8.450;2022-08-30T05:04:39;16.50;99.90
21815;DHT22;11069;48.988;8.450;2022-08-30T05:07:24;16.50;99.90
21815;DHT22;11069;48.988;8.450;2022-08-30T05:09:50;16.50;99.90
21815;DHT22;11069;48.988;8.450;2022-08-30T05:12:16;16.60;99.90
21815;DHT22;11069;48.988;8.450;2022-08-30T05:14:41;16.70;99.90
21815;DHT22;11069;48.988;8.450;2022-08-30T05:17:07;16.80;99.90
21815;DHT22;11069;48.988;8.450;2022-08-30T05:19:32;16.80;99.90
21815;DHT22;11069;48.988;8.450;2022-08-30T05:21:58;16.90;99.90
21815;DHT22;11069;48.988;8.450;2022-08-30T05:24:24;17.00;99.90
21815;DHT22;11069;48.988;8.450;2022-08-30T05:26:50;17.00;99.90
21815;DHT22;11069;48.988;8.450;2022-08-30T05:29:16;17.00;99.90
21815;DHT22;11069;48.988;8.450;2022-08-30T05:31:42;17.00;99.90
21815;DHT22;11069;48.988;8.450;2022-08-30T05:34:09;17.00;99.90
21815;DHT22;11069;48.988;8.450;2022-08-30T05:36:38;17.10;99.90
21815;DHT22;11069;48.988;8.450;2022-08-30T05:39:05;17.10;99.90
21815;DHT22;11069;48.988;8.450;2022-08-30T05:41:32;17.20;99.90
21815;DHT22;11069;48.988;8.450;2022-08-30T05:43:59;17.30;99.90
21815;DHT22;11069;48.988;8.450;2022-08-30T05:46:26;17.30;99.90
21815;DHT22;11069;48.988;8.450;2022-08-30T05:48:55;17.30;99.90
21815;DHT22;11069;48.988;8.450;2022-08-30T05:51:23;17.30;99.90
21815;DHT22;11069;48.988;8.450;2022-08-30T05:53:51;17.40;99.90
21815;DHT22;11069;48.988;8.450;2022-08-30T05:56:20;17.40;99.90
21815;DHT22;11069;48.988;8.450;2022-08-30T05:58:46;17.50;99.90
21815;DHT22;11069;48.988;8.450;2022-08-30T06:03:48;17.50;99.90
21815;DHT22;11069;48.988;8.450;2022-08-30T06:06:13;17.60;99.90
21815;DHT22;11069;48.988;8.450;2022-08-30T06:08:40;17.70;99.90
21815;DHT22;11069;48.988;8.450;2022-08-30T06:11:06;17.70;99.90
21815;DHT22;11069;48.988;8.450;2022-08-30T06:13:32;17.80;99.90
21815;DHT22;11069;48.988;8.450;2022-08-30T06:15:58;17.90;99.90
21815;DHT22;11069;48.988;8.450;2022-08-30T06:18:24;17.90;99.90
21815;DHT22;11069;48.988;8.450;2022-08-30T06:20:49;17.90;99.90
21815;DHT22;11069;48.988;8.450;2022-08-30T06:23:16;18.00;99.90
21815;DHT22;11069;48.988;8.450;2022-08-30T06:25:43;18.10;99.90
21815;DHT22;11069;48.988;8.450;2022-08-30T06:28:09;18.10;99.90
21815;DHT22;11069;48.988;8.450;2022-08-30T06:30:35;18.10;99.90
21815;DHT22;11069;48.988;8.450;2022-08-30T06:33:01;18.20;99.90
21815;DHT22;11069;48.988;8.450;2022-08-30T06:35:27;18.20;99.90
21815;DHT22;11069;48.988;8.450;2022-08-30T06:37:53;18.30;99.90
21815;DHT22;11069;48.988;8.450;2022-08-30T06:40:19;18.40;99.90
21815;DHT22;11069;48.988;8.450;2022-08-30T06:42:46;18.70;99.90
21815;DHT22;11069;48.988;8.450;2022-08-30T06:45:12;18.90;99.90
21815;DHT22;11069;48.988;8.450;2022-08-30T06:47:39;19.10;99.90
21815;DHT22;11069;48.988;8.450;2022-08-30T06:50:06;19.20;99.90
21815;DHT22;11069;48.988;8.450;2022-08-30T06:52:32;19.40;99.90
21815;DHT22;11069;48.988;8.450;2022-08-30T06:54:58;19.60;99.90
21815;DHT22;11069;48.988;8.450;2022-08-30T06:57:24;19.80;99.90
21815;DHT22;11069;48.988;8.450;2022-08-30T06:59:57;20.00;99.90
21815;DHT22;11069;48.988;8.450;2022-08-30T07:02:23;20.20;99.90
21815;DHT22;11069;48.988;8.450;2022-08-30T07:04:49;20.30;99.90
21815;DHT22;11069;48.988;8.450;2022-08-30T07:07:15;20.60;99.90
21815;DHT22;11069;48.988;8.450;2022-08-30T07:09:41;20.80;99.90
21815;DHT22;11069;48.988;8.450;2022-08-30T07:12:09;20.90;99.90
21815;DHT22;11069;48.988;8.450;2022-08-30T07:14:35;21.10;99.90
21815;DHT22;11069;48.988;8.450;2022-08-30T07:17:01;21.50;99.90
21815;DHT22;11069;48.988;8.450;2022-08-30T07:19:48;21.80;99.90
21815;DHT22;11069;48.988;8.450;2022-08-30T07:22:14;22.00;99.90
21815;DHT22;11069;48.988;8.450;2022-08-30T07:24:39;22.30;99.90
21815;DHT22;11069;48.988;8.450;2022-08-30T07:27:05;22.30;99.90
21815;DHT22;11069;48.988;8.450;2022-08-30T07:29:30;22.20;99.90
21815;DHT22;11069;48.988;8.450;2022-08-30T07:31:56;22.30;99.90
21815;DHT22;11069;48.988;8.450;2022-08-30T07:34:22;22.60;99.90
21815;DHT22;11069;48.988;8.450;2022-08-30T07:36:47;22.60;99.90
21815;DHT22;11069;48.988;8.450;2022-08-30T07:39:13;23.10;99.90
21815;DHT22;11069;48.988;8.450;2022-08-30T07:41:39;23.20;99.90
21815;DHT22;11069;48.988;8.450;2022-08-30T07:44:06;23.50;99.90
21815;DHT22;11069;48.988;8.450;2022-08-30T07:46:32;23.80;99.90
21815;DHT22;11069;48.988;8.450;2022-08-30T07:48:59;24.30;99.90
21815;DHT22;11069;48.988;8.450;2022-08-30T07:51:26;24.30;99.90
21815;DHT22;11069;48.988;8.450;2022-08-30T07:53:53;24.60;99.90
21815;DHT22;11069;48.988;8.450;2022-08-30T07:56:19;24.80;99.40
21815;DHT22;11069;48.988;8.450;2022-08-30T07:58:45;24.80;98.70
21815;DHT22;11069;48.988;8.450;2022-08-30T08:01:12;25.10;97.80
21815;DHT22;11069;48.988;8.450;2022-08-30T08:03:38;25.40;98.30
21815;DHT22;11069;48.988;8.450;2022-08-30T08:06:06;25.40;98.00
21815;DHT22;11069;48.988;8.450;2022-08-30T08:08:33;25.10;98.40
21815;DHT22;11069;48.988;8.450;2022-08-30T08:11:08;25.00;98.10
21815;DHT22;11069;48.988;8.450;2022-08-30T08:13:35;24.70;98.80
21815;DHT22;11069;48.988;8.450;2022-08-30T08:16:01;24.80;98.60
21815;DHT22;11069;48.988;8.450;2022-08-30T08:18:27;24.90;98.30
21815;DHT22;11069;48.988;8.450;2022-08-30T08:20:52;25.20;98.80
21815;DHT22;11069;48.988;8.450;2022-08-30T08:23:18;25.30;98.40
21815;DHT22;11069;48.988;8.450;2022-08-30T08:25:43;25.20;97.70
21815;DHT22;11069;48.988;8.450;2022-08-30T08:28:09;25.00;98.10
21815;DHT22;11069;48.988;8.450;2022-08-30T08:30:36;24.70;98.60
21815;DHT22;11069;48.988;8.450;2022-08-30T08:33:03;24.70;98.60
21815;DHT22;11069;48.988;8.450;2022-08-30T08:35:28;24.50;98.60
21815;DHT22;11069;48.988;8.450;2022-08-30T08:37:54;24.30;99.50
21815;DHT22;11069;48.988;8.450;2022-08-30T08:40:20;24.50;98.80
21815;DHT22;11069;48.988;8.450;2022-08-30T08:43:02;24.60;98.40
21815;DHT22;11069;48.988;8.450;2022-08-30T08:45:42;25.00;98.60
21815;DHT22;11069;48.988;8.450;2022-08-30T08:50:55;25.70;97.50
21815;DHT22;11069;48.988;8.450;2022-08-30T08:53:44;25.70;97.10
21815;DHT22;11069;48.988;8.450;2022-08-30T08:56:14;26.10;97.80
21815;DHT22;11069;48.988;8.450;2022-08-30T08:58:58;26.00;96.80
21815;DHT22;11069;48.988;8.450;2022-08-30T09:01:29;26.20;96.70
21815;DHT22;11069;48.988;8.450;2022-08-30T09:03:56;26.50;95.00
21815;DHT22;11069;48.988;8.450;2022-08-30T09:08:57;26.40;95.30
21815;DHT22;11069;48.988;8.450;2022-08-30T09:11:26;26.20;96.50
21815;DHT22;11069;48.988;8.450;2022-08-30T09:13:53;26.50;97.20
21815;DHT22;11069;48.988;8.450;2022-08-30T09:24:44;26.70;96.80
21815;DHT22;11069;48.988;8.450;2022-08-30T09:27:23;27.00;96.20
21815;DHT22;11069;48.988;8.450;2022-08-30T09:29:59;27.70;94.90
21815;DHT22;11069;48.988;8.450;2022-08-30T09:32:37;28.50;94.50
21815;DHT22;11069;48.988;8.450;2022-08-30T09:35:07;28.40;92.60
21815;DHT22;11069;48.988;8.450;2022-08-30T09:37:45;28.60;92.30
21815;DHT22;11069;48.988;8.450;2022-08-30T09:40:25;28.20;91.90
21815;DHT22;11069;48.988;8.450;2022-08-30T09:45:43;28.30;91.30
21815;DHT22;11069;48.988;8.450;2022-08-30T09:59:30;29.20;90.60
21815;DHT22;11069;48.988;8.450;2022-08-30T10:07:23;29.10;90.80
21815;DHT22;11069;48.988;8.450;2022-08-30T10:15:34;29.90;90.30
21815;DHT22;11069;48.988;8.450;2022-08-30T10:18:12;30.30;89.70
21815;DHT22;11069;48.988;8.450;2022-08-30T10:23:36;30.00;88.70
21815;DHT22;11069;48.988;8.450;2022-08-30T10:26:30;29.70;87.50
21815;DHT22;11069;48.988;8.450;2022-08-30T10:29:13;29.20;90.00
21815;DHT22;11069;48.988;8.450;2022-08-30T10:34:15;29.10;90.30
21815;DHT22;11069;48.988;8.450;2022-08-30T10:36:55;29.20;89.40
21815;DHT22;11069;48.988;8.450;2022-08-30T10:39:23;29.30;85.60
21815;DHT22;11069;48.988;8.450;2022-08-30T10:41:54;29.70;88.00
21815;DHT22;11069;48.988;8.450;2022-08-30T10:44:27;29.90;86.10
21815;DHT22;11069;48.988;8.450;2022-08-30T10:49:43;30.70;81.80
21815;DHT22;11069;48.988;8.450;2022-08-30T10:52:27;30.80;83.30
21815;DHT22;11069;48.988;8.450;2022-08-30T10:57:29;30.50;82.30
21815;DHT22;11069;48.988;8.450;2022-08-30T11:00:13;31.10;82.70
21815;DHT22;11069;48.988;8.450;2022-08-30T11:06:05;31.10;82.00
21815;DHT22;11069;48.988;8.450;2022-08-30T11:08:40;31.50;76.80
21815;DHT22;11069;48.988;8.450;2022-08-30T11:13:50;31.20;79.30
21815;DHT22;11069;48.988;8.450;2022-08-30T11:16:17;31.00;79.60
21815;DHT22;11069;48.988;8.450;2022-08-30T11:21:22;30.20;82.10
21815;DHT22;11069;48.988;8.450;2022-08-30T11:31:56;30.70;81.80
21815;DHT22;11069;48.988;8.450;2022-08-30T11:39:59;29.80;80.30
21815;DHT22;11069;48.988;8.450;2022-08-30T11:42:43;29.80;81.60
21815;DHT22;11069;48.988;8.450;2022-08-30T11:47:52;29.80;82.40
21815;DHT22;11069;48.988;8.450;2022-08-30T11:50:22;30.30;83.10
21815;DHT22;11069;48.988;8.450;2022-08-30T11:55:54;30.20;79.70
21815;DHT22;11069;48.988;8.450;2022-08-30T12:01:19;29.50;83.40
21815;DHT22;11069;48.988;8.450;2022-08-30T12:09:09;29.40;83.70
21815;DHT22;11069;48.988;8.450;2022-08-30T12:14:02;30.30;84.00
21815;DHT22;11069;48.988;8.450;2022-08-30T12:16:44;30.50;81.20
21815;DHT22;11069;48.988;8.450;2022-08-30T12:19:30;31.30;76.40
21815;DHT22;11069;48.988;8.450;2022-08-30T12:22:00;32.00;75.20
21815;DHT22;11069;48.988;8.450;2022-08-30T12:24:36;31.80;77.50
21815;DHT22;11069;48.988;8.450;2022-08-30T12:29:55;32.50;74.00
21815;DHT22;11069;48.988;8.450;2022-08-30T12:32:21;32.70;74.10
21815;DHT22;11069;48.988;8.450;2022-08-30T12:34:55;33.20;72.20
21815;DHT22;11069;48.988;8.450;2022-08-30T12:40:13;33.50;72.00
21815;DHT22;11069;48.988;8.450;2022-08-30T12:42:47;33.30;70.60
21815;DHT22;11069;48.988;8.450;2022-08-30T12:45:16;32.80;71.80
21815;DHT22;11069;48.988;8.450;2022-08-30T12:47:48;32.90;72.10
21815;DHT22;11069;48.988;8.450;2022-08-30T12:50:24;32.70;71.20
21815;DHT22;11069;48.988;8.450;2022-08-30T12:55:31;33.40;70.50
21815;DHT22;11069;48.988;8.450;2022-08-30T12:58:08;33.60;69.50
21815;DHT22;11069;48.988;8.450;2022-08-30T13:00:36;33.50;71.70
21815;DHT22;11069;48.988;8.450;2022-08-30T13:03:27;34.40;69.00
21815;DHT22;11069;48.988;8.450;2022-08-30T13:05:50;35.00;65.80
21815;DHT22;11069;48.988;8.450;2022-08-30T13:08:23;34.80;69.00
21815;DHT22;11069;48.988;8.450;2022-08-30T13:10:53;35.00;67.00
21815;DHT22;11069;48.988;8.450;2022-08-30T13:13:37;34.40;68.70
21815;DHT22;11069;48.988;8.450;2022-08-30T13:18:42;33.70;69.50
21815;DHT22;11069;48.988;8.450;2022-08-30T13:21:30;32.70;67.80
21815;DHT22;11069;48.988;8.450;2022-08-30T13:24:04;33.30;70.00
21815;DHT22;11069;48.988;8.450;2022-08-30T13:26:33;33.70;67.90
21815;DHT22;11069;48.988;8.450;2022-08-30T13:29:02;33.60;70.40
21815;DHT22;11069;48.988;8.450;2022-08-30T13:31:29;33.70;68.80
21815;DHT22;11069;48.988;8.450;2022-08-30T13:33:55;34.80;67.40
21815;DHT22;11069;48.988;8.450;2022-08-30T13:36:27;34.70;66.30
21815;DHT22;11069;48.988;8.450;2022-08-30T13:38:53;35.30;66.70
21815;DHT22;11069;48.988;8.450;2022-08-30T13:41:19;36.10;64.30
21815;DHT22;11069;48.988;8.450;2022-08-30T13:43:46;36.10;62.90
21815;DHT22;11069;48.988;8.450;2022-08-30T13:46:12;36.60;62.80
21815;DHT22;11069;48.988;8.450;2022-08-30T13:48:38;36.50;62.90
21815;DHT22;11069;48.988;8.450;2022-08-30T13:51:04;35.50;60.20
21815;DHT22;11069;48.988;8.450;2022-08-30T13:53:30;35.40;62.30
21815;DHT22;11069;48.988;8.450;2022-08-30T13:55:56;34.20;64.30
21815;DHT22;11069;48.988;8.450;2022-08-30T13:58:21;35.40;67.30
21815;DHT22;11069;48.988;8.450;2022-08-30T14:00:47;35.30;63.50
21815;DHT22;11069;48.988;8.450;2022-08-30T14:03:14;36.00;61.90
21815;DHT22;11069;48.988;8.450;2022-08-30T14:05:41;35.50;63.90
21815;DHT22;11069;48.988;8.450;2022-08-30T14:08:08;35.60;62.60
21815;DHT22;11069;48.988;8.450;2022-08-30T14:10:35;35.80;62.70
21815;DHT22;11069;48.988;8.450;2022-08-30T14:13:01;36.00;60.20
21815;DHT22;11069;48.988;8.450;2022-08-30T14:15:27;35.90;61.20
21815;DHT22;11069;48.988;8.450;2022-08-30T14:17:52;35.30;61.50
21815;DHT22;11069;48.988;8.450;2022-08-30T14:20:18;36.10;62.30
21815;DHT22;11069;48.988;8.450;2022-08-30T14:22:44;36.10;60.40
21815;DHT22;11069;48.988;8.450;2022-08-30T14:25:10;35.60;61.50
21815;DHT22;11069;48.988;8.450;2022-08-30T14:27:36;35.30;62.70
21815;DHT22;11069;48.988;8.450;2022-08-30T14:30:03;35.90;61.30
21815;DHT22;11069;48.988;8.450;2022-08-30T14:32:28;36.60;58.20
21815;DHT22;11069;48.988;8.450;2022-08-30T14:34:54;36.40;58.40
21815;DHT22;11069;48.988;8.450;2022-08-30T14:37:19;35.60;60.30
21815;DHT22;11069;48.988;8.450;2022-08-30T14:39:45;36.00;60.30
21815;DHT22;11069;48.988;8.450;2022-08-30T14:42:11;35.50;59.90
21815;DHT22;11069;48.988;8.450;2022-08-30T14:44:37;36.30;60.70
21815;DHT22;11069;48.988;8.450;2022-08-30T14:47:03;35.30;57.60
21815;DHT22;11069;48.988;8.450;2022-08-30T14:49:29;34.90;61.20
21815;DHT22;11069;48.988;8.450;2022-08-30T14:51:55;34.60;60.60
21815;DHT22;11069;48.988;8.450;2022-08-30T14:54:25;34.00;63.80
21815;DHT22;11069;48.988;8.450;2022-08-30T14:56:52;33.40;62.40
21815;DHT22;11069;48.988;8.450;2022-08-30T14:59:18;33.60;62.70
21815;DHT22;11069;48.988;8.450;2022-08-30T15:01:44;34.10;61.90
21815;DHT22;11069;48.988;8.450;2022-08-30T15:04:10;34.00;62.20
21815;DHT22;11069;48.988;8.450;2022-08-30T15:06:38;33.40;64.90
21815;DHT22;11069;48.988;8.450;2022-08-30T15:09:05;33.40;63.40
21815;DHT22;11069;48.988;8.450;2022-08-30T15:11:32;33.10;65.10
21815;DHT22;11069;48.988;8.450;2022-08-30T15:13:57;33.50;63.10
21815;DHT22;11069;48.988;8.450;2022-08-30T15:16:26;33.50;62.20
21815;DHT22;11069;48.988;8.450;2022-08-30T15:18:52;33.50;62.60
21815;DHT22;11069;48.988;8.450;2022-08-30T15:21:26;33.30;64.00
21815;DHT22;11069;48.988;8.450;2022-08-30T15:23:52;33.20;64.30
21815;DHT22;11069;48.988;8.450;2022-08-30T15:26:19;32.30;62.20
21815;DHT22;11069;48.988;8.450;2022-08-30T15:28:45;31.40;66.80
21815;DHT22;11069;48.988;8.450;2022-08-30T15:31:11;30.50;67.60
21815;DHT22;11069;48.988;8.450;2022-08-30T15:33:37;30.60;70.60
21815;DHT22;11069;48.988;8.450;2022-08-30T15:36:04;31.20;70.40
21815;DHT22;11069;48.988;8.450;2022-08-30T15:38:29;31.60;66.60
21815;DHT22;11069;48.988;8.450;2022-08-30T15:40:56;32.10;65.80
21815;DHT22;11069;48.988;8.450;2022-08-30T15:43:26;32.30;63.80
21815;DHT22;11069;48.988;8.450;2022-08-30T15:45:53;32.60;65.60
21815;DHT22;11069;48.988;8.450;2022-08-30T15:48:19;32.20;65.70
21815;DHT22;11069;48.988;8.450;2022-08-30T15:50:45;32.10;62.40
21815;DHT22;11069;48.988;8.450;2022-08-30T15:53:11;32.10;62.90
21815;DHT22;11069;48.988;8.450;2022-08-30T15:55:36;31.80;67.20
21815;DHT22;11069;48.988;8.450;2022-08-30T15:58:02;30.60;67.10
21815;DHT22;11069;48.988;8.450;2022-08-30T16:00:28;30.30;70.10
21815;DHT22;11069;48.988;8.450;2022-08-30T16:02:53;29.80;69.70
21815;DHT22;11069;48.988;8.450;2022-08-30T16:05:19;29.40;71.60
21815;DHT22;11069;48.988;8.450;2022-08-30T16:07:49;29.30;72.50
21815;DHT22;11069;48.988;8.450;2022-08-30T16:10:15;29.30;72.90
21815;DHT22;11069;48.988;8.450;2022-08-30T16:12:40;29.10;71.90
21815;DHT22;11069;48.988;8.450;2022-08-30T16:15:07;29.30;72.00
21815;DHT22;11069;48.988;8.450;2022-08-30T16:17:33;29.10;71.50
21815;DHT22;11069;48.988;8.450;2022-08-30T16:19:59;29.10;72.70
21815;DHT22;11069;48.988;8.450;2022-08-30T16:22:25;29.00;71.80
21815;DHT22;11069;48.988;8.450;2022-08-30T16:24:50;29.00;73.80
21815;DHT22;11069;48.988;8.450;2022-08-30T16:27:16;29.00;73.50
21815;DHT22;11069;48.988;8.450;2022-08-30T16:29:42;28.90;73.70
21815;DHT22;11069;48.988;8.450;2022-08-30T16:32:07;28.70;73.40
21815;DHT22;11069;48.988;8.450;2022-08-30T16:34:33;28.50;73.10
21815;DHT22;11069;48.988;8.450;2022-08-30T16:36:59;28.40;73.30
21815;DHT22;11069;48.988;8.450;2022-08-30T16:39:24;28.40;72.90
21815;DHT22;11069;48.988;8.450;2022-08-30T16:41:50;28.20;73.90
21815;DHT22;11069;48.988;8.450;2022-08-30T16:44:15;28.20;75.30
21815;DHT22;11069;48.988;8.450;2022-08-30T16:46:42;28.20;73.90
21815;DHT22;11069;48.988;8.450;2022-08-30T16:49:07;28.10;75.20
21815;DHT22;11069;48.988;8.450;2022-08-30T16:51:34;28.00;75.20
21815;DHT22;11069;48.988;8.450;2022-08-30T16:54:02;27.90;74.90
21815;DHT22;11069;48.988;8.450;2022-08-30T16:56:30;27.90;76.20
21815;DHT22;11069;48.988;8.450;2022-08-30T16:58:58;27.80;75.80
21815;DHT22;11069;48.988;8.450;2022-08-30T17:01:24;27.60;77.20
21815;DHT22;11069;48.988;8.450;2022-08-30T17:03:50;27.40;75.60
21815;DHT22;11069;48.988;8.450;2022-08-30T17:06:16;27.40;76.30
21815;DHT22;11069;48.988;8.450;2022-08-30T17:08:42;27.30;77.00
21815;DHT22;11069;48.988;8.450;2022-08-30T17:11:12;27.20;78.70
21815;DHT22;11069;48.988;8.450;2022-08-30T17:13:37;27.10;78.90
21815;DHT22;11069;48.988;8.450;2022-08-30T17:16:04;27.00;77.40
21815;DHT22;11069;48.988;8.450;2022-08-30T17:18:30;26.90;78.60